Time;durP1;ratioP1;P1;durP2;ratioP2;P2;SDS_P1;SDS_P2;PMS_P1;PMS_P2;Temp;Humidity;BMP_temperature;BMP_pressure;BME280_temperature;BME280_humidity;BME280_pressure;Samples;Min_cycle;Max_cycle;Signal;HPM_P1;HPM_P2
2023/08/16 00:02:24;;;;;;;11.60;4.75;;;14.50;99.90;;;;;;5054729;28;20136;-78
2023/08/16 00:04:50;;;;;;;15.85;5.15;;;14.40;99.90;;;;;;5037929;28;20469;-77
2023/08/16 00:07:16;;;;;;;10.60;4.65;;;14.40;99.90;;;;;;5055865;28;20045;-77
2023/08/16 00:09:42;;;;;;;15.85;4.63;;;14.40;99.90;;;;;;5054566;28;20049;-77
2023/08/16 00:12:08;;;;;;;12.98;4.55;;;14.40;99.90;;;;;;5054820;28;20041;-77
2023/08/16 00:14:33;;;;;;;13.18;4.68;;;14.30;99.90;;;;;;5038034;28;20068;-77
2023/08/16 00:16:59;;;;;;;14.25;4.88;;;14.20;99.90;;;;;;5054478;28;20463;-76
2023/08/16 00:19:25;;;;;;;12.32;4.88;;;14.20;99.90;;;;;;5055012;28;20045;-78
2023/08/16 00:21:51;;;;;;;10.68;4.60;;;14.20;99.90;;;;;;5053797;28;20041;-78
2023/08/16 00:24:17;;;;;;;13.98;4.25;;;14.10;99.90;;;;;;5038524;28;20045;-78
2023/08/16 00:26:43;;;;;;;9.57;3.88;;;14.10;99.90;;;;;;5055859;28;20383;-78
2023/08/16 00:29:09;;;;;;;10.20;3.72;;;14.10;99.90;;;;;;5055209;28;20485;-77
2023/08/16 00:31:34;;;;;;;12.63;4.45;;;14.10;99.90;;;;;;5054361;28;20132;-76
2023/08/16 00:34:00;;;;;;;11.70;4.07;;;14.10;99.90;;;;;;5054208;28;20045;-77
2023/08/16 00:36:26;;;;;;;16.15;6.50;;;14.00;99.90;;;;;;5054358;28;20054;-77
2023/08/16 00:38:52;;;;;;;11.20;6.03;;;14.00;99.90;;;;;;5055260;28;20517;-76
2023/08/16 00:41:19;;;;;;;14.50;5.35;;;14.00;99.90;;;;;;5037164;28;20045;-77
2023/08/16 00:43:44;;;;;;;9.65;4.95;;;14.00;99.90;;;;;;5054965;28;20409;-77
2023/08/16 00:46:12;;;;;;;9.68;4.55;;;14.00;99.90;;;;;;5038613;28;20135;-77
2023/08/16 00:48:41;;;;;;;10.02;4.35;;;13.90;99.90;;;;;;5053963;28;20048;-77
2023/08/16 00:51:08;;;;;;;15.52;5.25;;;13.90;99.90;;;;;;5055119;28;20389;-77
2023/08/16 00:53:36;;;;;;;14.10;5.70;;;13.90;99.90;;;;;;5054875;28;20088;-76
2023/08/16 00:56:03;;;;;;;14.20;6.20;;;13.90;99.90;;;;;;5053004;28;20592;-78
2023/08/16 00:58:30;;;;;;;13.57;6.15;;;13.90;99.90;;;;;;5054854;28;20088;-77
2023/08/16 01:00:56;;;;;;;15.25;5.72;;;13.80;99.90;;;;;;5036989;28;20045;-77
2023/08/16 01:03:22;;;;;;;15.20;6.20;;;13.80;99.90;;;;;;5054990;28;20444;-79
2023/08/16 01:05:47;;;;;;;12.43;6.38;;;13.80;99.90;;;;;;5054859;28;20076;-78
2023/08/16 01:08:13;;;;;;;15.05;5.50;;;13.80;99.90;;;;;;5053941;28;20110;-78
2023/08/16 01:10:53;;;;;;;16.15;6.22;;;13.80;99.90;;;;;;5053580;28;20045;-77
2023/08/16 01:13:34;;;;;;;13.50;5.72;;;13.70;99.90;;;;;;5054214;28;20531;-77
2023/08/16 01:16:07;;;;;;;12.52;6.07;;;13.70;99.90;;;;;;5054498;28;20048;-76
2023/08/16 01:18:39;;;;;;;15.68;6.05;;;13.70;99.90;;;;;;5053416;28;20055;-78
2023/08/16 01:21:08;;;;;;;16.73;6.35;;;13.70;99.90;;;;;;5054268;28;20055;-79
2023/08/16 01:23:43;;;;;;;19.08;7.25;;;13.70;99.90;;;;;;5037372;28;20061;-78
2023/08/16 01:26:15;;;;;;;16.15;7.45;;;13.70;99.90;;;;;;5053242;28;20063;-79
2023/08/16 01:28:42;;;;;;;20.38;6.80;;;13.70;99.90;;;;;;5020203;28;20044;-78
2023/08/16 01:31:09;;;;;;;19.98;7.55;;;13.70;99.90;;;;;;5053346;28;20076;-78
2023/08/16 01:33:35;;;;;;;17.95;7.88;;;13.70;99.90;;;;;;5053838;28;20116;-78
2023/08/16 01:36:00;;;;;;;17.63;7.55;;;13.70;99.90;;;;;;5054015;28;20049;-78
2023/08/16 01:38:27;;;;;;;17.15;7.95;;;13.70;99.90;;;;;;5053787;28;20045;-78
2023/08/16 01:41:10;;;;;;;16.50;8.30;;;13.70;99.90;;;;;;5052761;28;20370;-78
2023/08/16 01:43:36;;;;;;;18.20;7.95;;;13.70;99.90;;;;;;5053885;28;20451;-79
2023/08/16 01:46:04;;;;;;;19.02;8.43;;;13.70;99.90;;;;;;5053929;28;20127;-80
2023/08/16 01:48:32;;;;;;;17.92;8.75;;;13.80;99.90;;;;;;5036389;28;20119;-79
2023/08/16 01:50:58;;;;;;;18.42;8.43;;;13.80;99.90;;;;;;5053815;28;20048;-79
2023/08/16 01:53:24;;;;;;;17.80;8.70;;;13.80;99.90;;;;;;5053409;28;20067;-77
2023/08/16 01:55:50;;;;;;;18.25;8.30;;;13.90;99.90;;;;;;5052368;28;20048;-79
2023/08/16 01:58:16;;;;;;;22.08;8.07;;;13.90;99.90;;;;;;5052202;28;20136;-77
2023/08/16 02:00:42;;;;;;;19.90;8.10;;;13.90;99.90;;;;;;5053321;28;20044;-78
2023/08/16 02:03:08;;;;;;;21.00;8.98;;;13.80;99.90;;;;;;5054328;28;20123;-78
2023/08/16 02:05:34;;;;;;;21.77;9.40;;;13.80;99.90;;;;;;5052285;28;20548;-78
2023/08/16 02:07:59;;;;;;;16.95;8.38;;;13.80;99.90;;;;;;5053670;28;20420;-79
2023/08/16 02:10:25;;;;;;;24.33;8.88;;;13.80;99.90;;;;;;5053116;28;20469;-78
2023/08/16 02:12:51;;;;;;;30.33;9.90;;;13.70;99.90;;;;;;5052708;28;20045;-77
2023/08/16 02:15:16;;;;;;;22.20;9.15;;;13.70;99.90;;;;;;5054133;28;20060;-78
2023/08/16 02:17:42;;;;;;;20.70;9.95;;;13.70;99.90;;;;;;5052476;28;20072;-79
2023/08/16 02:20:09;;;;;;;18.67;9.32;;;13.70;99.90;;;;;;5052051;28;20041;-78
2023/08/16 02:22:35;;;;;;;21.05;9.50;;;13.70;99.90;;;;;;5053521;28;20048;-78
2023/08/16 02:25:01;;;;;;;24.05;9.43;;;13.70;99.90;;;;;;5053739;28;20049;-78
2023/08/16 02:27:27;;;;;;;18.42;8.40;;;13.70;99.90;;;;;;5053463;28;20052;-78
2023/08/16 02:29:52;;;;;;;21.60;9.30;;;13.70;99.90;;;;;;5052408;28;20045;-78
2023/08/16 02:32:18;;;;;;;20.75;8.90;;;13.60;99.90;;;;;;5052311;28;20041;-78
2023/08/16 02:34:44;;;;;;;18.13;8.40;;;13.60;99.90;;;;;;5053363;28;20060;-78
2023/08/16 02:37:10;;;;;;;19.90;8.18;;;13.60;99.90;;;;;;5053198;28;20095;-78
2023/08/16 02:39:36;;;;;;;26.73;9.43;;;13.50;99.90;;;;;;5053111;28;20611;-77
2023/08/16 02:42:01;;;;;;;18.63;8.02;;;13.50;99.90;;;;;;5053174;28;20102;-78
2023/08/16 02:44:27;;;;;;;25.33;9.35;;;13.40;99.90;;;;;;5051836;28;20056;-78
2023/08/16 02:46:53;;;;;;;17.92;8.80;;;13.40;99.90;;;;;;5053115;28;20053;-79
2023/08/16 02:49:19;;;;;;;18.92;8.98;;;13.50;99.90;;;;;;5052003;28;20037;-79
2023/08/16 02:51:44;;;;;;;21.25;10.18;;;13.40;99.90;;;;;;5053386;28;20045;-78
2023/08/16 02:54:10;;;;;;;24.17;10.35;;;13.40;99.90;;;;;;5052070;28;20080;-78
2023/08/16 02:56:36;;;;;;;26.02;11.23;;;13.40;99.90;;;;;;5054685;28;20064;-79
2023/08/16 02:59:02;;;;;;;25.77;10.05;;;13.40;99.90;;;;;;5070717;28;20055;-78
2023/08/16 03:01:27;;;;;;;26.30;10.40;;;13.40;99.90;;;;;;5052392;28;20075;-79
2023/08/16 03:03:53;;;;;;;25.65;10.35;;;13.40;99.90;;;;;;5053098;28;20562;-79
2023/08/16 03:06:19;;;;;;;28.88;11.13;;;13.40;99.90;;;;;;5088040;28;20049;-79
2023/08/16 03:08:45;;;;;;;21.85;10.70;;;13.40;99.90;;;;;;5056970;28;20083;-78
2023/08/16 03:11:11;;;;;;;21.40;9.70;;;13.40;99.90;;;;;;5056301;28;20045;-77
2023/08/16 03:13:37;;;;;;;21.02;10.20;;;13.40;99.90;;;;;;5023434;28;20049;-77
2023/08/16 03:16:03;;;;;;;23.13;10.90;;;13.40;99.90;;;;;;5056501;28;20049;-79
2023/08/16 03:18:29;;;;;;;24.75;11.30;;;13.40;99.90;;;;;;5056486;28;20477;-79
2023/08/16 03:20:55;;;;;;;32.17;11.85;;;13.40;99.90;;;;;;5057207;28;20037;-77
2023/08/16 03:23:20;;;;;;;29.05;12.55;;;13.30;99.90;;;;;;5055501;28;20492;-79
2023/08/16 03:25:46;;;;;;;26.55;12.13;;;13.40;99.90;;;;;;5056602;28;20045;-78
2023/08/16 03:28:12;;;;;;;25.20;11.82;;;13.40;99.90;;;;;;5055446;28;20041;-77
2023/08/16 03:30:39;;;;;;;33.13;12.90;;;13.30;99.90;;;;;;5057910;28;20068;-79
2023/08/16 03:33:05;;;;;;;27.42;12.07;;;13.30;99.90;;;;;;5056399;28;20101;-79
2023/08/16 03:35:30;;;;;;;28.92;12.38;;;13.30;99.90;;;;;;5054895;28;20055;-79
2023/08/16 03:37:56;;;;;;;26.98;12.18;;;13.30;99.90;;;;;;5056654;28;20124;-78
2023/08/16 03:40:22;;;;;;;26.60;12.23;;;13.30;99.90;;;;;;5057012;28;20393;-78
2023/08/16 03:42:47;;;;;;;32.75;13.82;;;13.20;99.90;;;;;;5058601;28;20497;-78
2023/08/16 03:45:13;;;;;;;27.70;12.32;;;13.20;99.90;;;;;;5055698;28;20045;-77
2023/08/16 03:47:39;;;;;;;27.73;12.25;;;13.20;99.90;;;;;;5056680;28;20439;-79
2023/08/16 03:50:05;;;;;;;27.40;12.38;;;13.20;99.90;;;;;;5055662;28;20045;-79
2023/08/16 03:52:32;;;;;;;29.98;13.23;;;13.10;99.90;;;;;;5056933;28;20059;-79
2023/08/16 03:54:58;;;;;;;34.00;13.13;;;13.10;99.90;;;;;;5056020;28;20141;-79
2023/08/16 03:57:23;;;;;;;33.78;14.40;;;13.10;99.90;;;;;;5070848;28;20053;-78
2023/08/16 03:59:52;;;;;;;39.30;14.23;;;13.20;99.90;;;;;;5054181;28;20385;-79
2023/08/16 04:02:21;;;;;;;33.63;14.57;;;13.20;99.90;;;;;;5055622;28;20055;-78
2023/08/16 04:04:52;;;;;;;37.55;15.38;;;13.30;99.90;;;;;;5055680;28;20053;-80
2023/08/16 04:07:18;;;;;;;33.00;14.82;;;13.30;99.90;;;;;;5055764;28;20041;-75
2023/08/16 04:09:43;;;;;;;36.10;14.70;;;13.30;99.90;;;;;;5054638;28;20052;-78
2023/08/16 04:12:09;;;;;;;33.17;13.48;;;13.20;99.90;;;;;;5056110;28;20124;-78
2023/08/16 04:14:35;;;;;;;28.33;13.65;;;13.20;99.90;;;;;;5055613;28;20115;-79
2023/08/16 04:17:01;;;;;;;31.38;14.07;;;13.20;99.90;;;;;;5055255;28;20053;-80
2023/08/16 04:19:26;;;;;;;27.38;13.32;;;13.20;99.90;;;;;;5056114;28;20041;-79
2023/08/16 04:21:52;;;;;;;36.72;14.05;;;13.20;99.90;;;;;;5054974;28;20377;-78
2023/08/16 04:24:18;;;;;;;22.17;10.52;;;13.20;99.90;;;;;;5037732;28;20037;-78
2023/08/16 04:26:43;;;;;;;20.02;9.10;;;13.20;99.90;;;;;;5055589;28;20052;-78
2023/08/16 04:29:09;;;;;;;25.60;10.10;;;13.10;99.90;;;;;;5059594;28;20049;-78
2023/08/16 04:31:35;;;;;;;17.88;9.43;;;13.10;99.90;;;;;;5055745;28;20095;-78
2023/08/16 04:34:01;;;;;;;22.05;9.55;;;13.10;99.90;;;;;;5054278;28;20057;-80
2023/08/16 04:36:26;;;;;;;21.15;9.88;;;13.10;99.90;;;;;;5054535;28;20051;-78
2023/08/16 04:38:52;;;;;;;24.73;10.45;;;13.10;99.90;;;;;;5054400;28;20048;-79
2023/08/16 04:41:18;;;;;;;26.33;10.43;;;13.10;99.90;;;;;;5055320;28;20087;-78
2023/08/16 04:43:44;;;;;;;18.67;9.73;;;13.10;99.90;;;;;;5087405;28;20110;-80
2023/08/16 04:46:09;;;;;;;24.60;10.18;;;13.10;99.90;;;;;;5055472;28;20048;-79
2023/08/16 04:48:35;;;;;;;24.52;11.23;;;13.00;99.90;;;;;;5053935;28;20397;-80
2023/08/16 04:51:01;;;;;;;28.35;12.43;;;13.00;99.90;;;;;;5053887;28;20095;-79
2023/08/16 04:53:26;;;;;;;29.20;11.35;;;13.00;99.90;;;;;;5054814;28;20041;-78
2023/08/16 04:55:52;;;;;;;30.48;11.80;;;13.00;99.90;;;;;;5054692;28;20463;-79
2023/08/16 04:58:18;;;;;;;30.48;12.52;;;13.00;99.90;;;;;;5055372;28;20100;-79
2023/08/16 05:00:44;;;;;;;27.13;12.48;;;13.00;99.90;;;;;;5087197;28;20056;-79
2023/08/16 05:03:09;;;;;;;31.48;12.35;;;13.10;99.90;;;;;;5053415;28;20117;-79
2023/08/16 05:05:35;;;;;;;28.15;12.38;;;13.10;99.90;;;;;;5054604;28;20052;-80
2023/08/16 05:08:01;;;;;;;33.13;13.05;;;13.10;99.90;;;;;;5054523;28;20053;-81
2023/08/16 05:10:27;;;;;;;26.02;12.02;;;13.20;99.90;;;;;;5053138;28;20083;-76
2023/08/16 05:12:52;;;;;;;28.48;12.85;;;13.10;99.90;;;;;;5054756;28;20405;-81
2023/08/16 05:15:18;;;;;;;30.67;13.15;;;13.20;99.90;;;;;;5053174;28;20045;-82
2023/08/16 05:17:44;;;;;;;30.42;13.50;;;13.20;99.90;;;;;;5052853;28;20092;-80
2023/08/16 05:20:10;;;;;;;33.30;13.45;;;13.30;99.90;;;;;;5054091;28;20073;-79
2023/08/16 05:22:35;;;;;;;28.15;11.77;;;13.30;99.90;;;;;;5054161;28;20408;-78
2023/08/16 05:25:01;;;;;;;33.00;11.55;;;13.30;99.90;;;;;;5054248;28;20128;-76
2023/08/16 05:27:28;;;;;;;25.70;12.52;;;13.40;99.90;;;;;;5052695;28;20044;-78
2023/08/16 05:29:54;;;;;;;;;;;13.40;99.90;;;;;;5055106;28;20045;-79
2023/08/16 05:32:20;;;;;;;30.33;11.93;;;13.30;99.90;;;;;;5054661;28;19921;-79
2023/08/16 05:34:46;;;;;;;30.10;12.18;;;13.30;99.90;;;;;;5037297;28;20041;-78
2023/08/16 05:37:11;;;;;;;28.50;12.80;;;13.40;99.90;;;;;;5041213;28;20044;-78
2023/08/16 05:39:38;;;;;;;26.08;11.55;;;13.40;99.90;;;;;;5055165;28;20496;-79
2023/08/16 05:42:04;;;;;;;27.63;11.98;;;13.40;99.90;;;;;;5036803;28;20412;-80
2023/08/16 05:44:29;;;;;;;27.00;11.55;;;13.60;99.90;;;;;;5054809;28;20041;-78
2023/08/16 05:46:55;;;;;;;26.35;11.85;;;13.70;99.90;;;;;;5020641;28;20472;-79
2023/08/16 05:49:21;;;;;;;30.95;10.95;;;13.80;99.90;;;;;;5052740;28;20052;-81
2023/08/16 05:51:47;;;;;;;23.17;11.70;;;13.80;99.90;;;;;;5036218;28;20472;-80
2023/08/16 05:54:13;;;;;;;26.50;11.55;;;13.90;99.90;;;;;;5053714;28;20084;-80
2023/08/16 05:56:39;;;;;;;26.58;12.13;;;13.90;99.90;;;;;;5053121;28;20064;-80
2023/08/16 05:59:05;;;;;;;25.73;11.68;;;14.00;99.90;;;;;;5035628;28;20493;-77
2023/08/16 06:01:31;;;;;;;27.40;13.32;;;14.10;99.90;;;;;;5052379;28;20132;-80
2023/08/16 06:03:57;;;;;;;30.40;13.43;;;14.30;99.90;;;;;;5036098;28;20128;-79
2023/08/16 06:06:22;;;;;;;29.17;12.45;;;14.30;99.90;;;;;;5053561;28;20055;-79
2023/08/16 06:08:49;;;;;;;28.55;12.82;;;14.40;99.90;;;;;;5085819;28;20041;-77
2023/08/16 06:11:16;;;;;;;31.17;12.80;;;14.50;99.90;;;;;;5053455;28;20082;-79
2023/08/16 06:13:41;;;;;;;30.10;12.13;;;14.60;99.90;;;;;;5053700;28;20045;-79
2023/08/16 06:16:07;;;;;;;24.98;11.82;;;14.70;99.90;;;;;;5053592;28;20037;-78
2023/08/16 06:18:33;;;;;;;30.17;12.32;;;14.70;99.90;;;;;;5052411;28;20063;-79
2023/08/16 06:20:58;;;;;;;24.38;12.13;;;14.70;99.90;;;;;;5053338;28;20191;-80
2023/08/16 06:23:24;;;;;;;31.50;12.07;;;14.80;99.90;;;;;;5053213;28;20072;-80
2023/08/16 06:25:50;;;;;;;32.03;13.00;;;14.80;99.90;;;;;;5052635;28;20084;-77
2023/08/16 06:28:17;;;;;;;26.90;11.47;;;14.90;99.90;;;;;;5052161;28;20138;-77
2023/08/16 06:30:42;;;;;;;28.50;13.13;;;14.90;99.90;;;;;;5035696;28;20055;-77
2023/08/16 06:33:08;;;;;;;30.63;12.85;;;15.00;99.90;;;;;;5054038;28;20037;-77
2023/08/16 06:35:34;;;;;;;27.83;11.60;;;15.00;99.90;;;;;;5052245;28;20400;-80
2023/08/16 06:38:01;;;;;;;26.92;12.40;;;15.10;99.90;;;;;;5035654;28;20044;-78
2023/08/16 06:40:27;;;;;;;33.60;13.43;;;15.20;99.90;;;;;;5038602;28;20044;-79
2023/08/16 06:42:52;;;;;;;31.15;12.27;;;15.30;99.90;;;;;;5058677;28;20049;-77
2023/08/16 06:45:18;;;;;;;30.60;13.27;;;15.40;99.90;;;;;;5096817;28;20488;-79
2023/08/16 06:47:44;;;;;;;29.77;13.05;;;15.50;99.90;;;;;;5061968;28;20104;-79
2023/08/16 06:50:10;;;;;;;29.50;12.82;;;15.60;99.90;;;;;;5059039;28;20445;-77
2023/08/16 06:52:36;;;;;;;29.37;13.77;;;15.80;99.90;;;;;;5090772;28;20171;-81
2023/08/16 06:55:02;;;;;;;33.22;13.85;;;15.90;99.90;;;;;;5060440;28;20087;-79
2023/08/16 06:57:27;;;;;;;31.38;13.95;;;16.10;99.90;;;;;;5041463;28;20056;-79
2023/08/16 06:59:53;;;;;;;34.20;12.50;;;16.20;99.90;;;;;;5057435;28;20053;-79
2023/08/16 07:02:20;;;;;;;25.63;13.35;;;16.30;99.90;;;;;;5057843;28;20099;-79
2023/08/16 07:04:46;;;;;;;;;;;16.30;99.90;;;;;;5056869;28;20060;-81
2023/08/16 07:07:12;;;;;;;26.57;13.37;;;16.30;99.90;;;;;;5056555;28;19920;-77
2023/08/16 07:09:38;;;;;;;28.42;13.00;;;16.40;99.90;;;;;;5057581;28;20088;-77
2023/08/16 07:12:04;;;;;;;30.55;12.93;;;16.40;99.90;;;;;;5057449;28;20088;-77
2023/08/16 07:14:30;;;;;;;31.52;14.20;;;16.50;99.90;;;;;;5057148;28;20045;-78
2023/08/16 07:16:55;;;;;;;31.77;13.90;;;16.50;99.90;;;;;;5055789;28;20051;-80
2023/08/16 07:19:21;;;;;;;27.38;12.48;;;16.60;99.90;;;;;;5039508;28;20080;-76
2023/08/16 07:21:48;;;;;;;30.87;12.43;;;16.70;99.90;;;;;;5055796;28;20049;-77
2023/08/16 07:24:14;;;;;;;28.40;13.20;;;16.70;99.90;;;;;;5039199;28;20477;-77
2023/08/16 07:26:39;;;;;;;28.20;12.73;;;16.80;99.90;;;;;;5056303;28;20080;-76
2023/08/16 07:29:05;;;;;;;27.52;11.68;;;16.90;99.90;;;;;;5056473;28;20124;-76
2023/08/16 07:31:31;;;;;;;31.50;12.07;;;17.00;99.90;;;;;;5055821;28;20095;-75
2023/08/16 07:33:56;;;;;;;25.10;10.50;;;17.10;99.90;;;;;;5055313;28;20072;-77
2023/08/16 07:36:22;;;;;;;25.50;11.03;;;17.20;99.90;;;;;;5055454;28;20049;-75
2023/08/16 07:38:48;;;;;;;28.17;11.10;;;17.30;99.90;;;;;;5056689;28;20045;-74
2023/08/16 07:41:15;;;;;;;24.80;11.47;;;17.40;99.90;;;;;;5089638;28;20448;-77
2023/08/16 07:43:40;;;;;;;27.98;11.52;;;17.60;99.90;;;;;;5057121;28;20409;-77
2023/08/16 07:46:06;;;;;;;29.07;11.57;;;17.70;99.90;;;;;;5056057;28;20048;-79
2023/08/16 07:48:32;;;;;;;21.83;10.30;;;17.70;99.90;;;;;;5055605;28;20536;-77
2023/08/16 07:50:58;;;;;;;20.50;8.13;;;18.00;99.90;;;;;;5039682;28;20049;-75
2023/08/16 07:53:23;;;;;;;15.87;7.40;;;18.10;99.90;;;;;;5065935;28;20052;-77
2023/08/16 07:55:49;;;;;;;21.50;7.77;;;18.10;99.90;;;;;;5056623;28;20059;-75
2023/08/16 07:58:15;;;;;;;19.00;6.97;;;18.00;99.90;;;;;;5054811;28;20052;-78
2023/08/16 08:00:48;;;;;;;16.85;6.63;;;18.00;99.90;;;;;;5056104;28;20033;-76
2023/08/16 08:03:14;;;;;;;20.63;6.18;;;18.00;99.90;;;;;;5054424;28;20526;-77
2023/08/16 08:05:39;;;;;;;18.73;6.38;;;17.90;99.90;;;;;;5056073;28;20119;-76
2023/08/16 08:08:06;;;;;;;21.27;5.77;;;17.90;99.90;;;;;;5055954;28;20071;-76
2023/08/16 08:10:32;;;;;;;18.60;6.10;;;18.00;99.90;;;;;;5056543;28;20041;-75
2023/08/16 08:12:58;;;;;;;17.20;5.43;;;18.10;99.90;;;;;;5056117;28;20047;-76
2023/08/16 08:15:24;;;;;;;13.20;5.10;;;18.20;99.90;;;;;;5054936;28;20049;-77
2023/08/16 08:17:50;;;;;;;14.03;5.23;;;18.30;99.90;;;;;;5055971;28;20068;-81
2023/08/16 08:20:16;;;;;;;15.27;5.23;;;18.40;99.90;;;;;;5056521;28;20120;-82
2023/08/16 08:22:42;;;;;;;16.10;5.00;;;18.50;99.90;;;;;;5055348;28;20056;-79
2023/08/16 08:25:08;;;;;;;13.60;4.63;;;18.60;99.90;;;;;;5056881;28;20041;-76
2023/08/16 08:27:34;;;;;;;13.05;5.47;;;18.70;99.90;;;;;;5056071;28;20148;-81
2023/08/16 08:30:00;;;;;;;12.70;4.70;;;18.80;99.90;;;;;;5054718;28;20048;-77
2023/08/16 08:32:26;;;;;;;12.70;4.13;;;18.80;99.90;;;;;;5054814;28;20250;-76
2023/08/16 08:34:52;;;;;;;11.30;4.37;;;18.90;99.90;;;;;;5056050;28;20186;-76
2023/08/16 08:37:18;;;;;;;12.47;4.07;;;19.10;99.90;;;;;;5055944;28;20501;-77
2023/08/16 08:39:43;;;;;;;10.40;4.23;;;19.20;99.90;;;;;;5037668;28;20052;-75
2023/08/16 08:42:09;;;;;;;12.77;4.00;;;19.20;99.90;;;;;;5053868;28;20087;-75
2023/08/16 08:44:39;;;;;;;11.85;4.15;;;19.30;99.90;;;;;;5055149;28;20132;-75
2023/08/16 08:47:06;;;;;;;11.60;4.03;;;19.40;99.90;;;;;;5087672;28;20048;-74
2023/08/16 08:49:34;;;;;;;10.45;3.97;;;19.50;99.90;;;;;;5054997;28;20048;-76
2023/08/16 08:52:02;;;;;;;12.95;4.43;;;19.50;99.90;;;;;;5054590;28;20501;-77
2023/08/16 08:54:28;;;;;;;13.80;4.50;;;19.50;99.90;;;;;;5055505;28;20071;-77
2023/08/16 08:56:55;;;;;;;13.37;4.97;;;19.60;99.90;;;;;;5053566;28;20485;-75
2023/08/16 08:59:21;;;;;;;;;;;19.80;99.90;;;;;;5055576;28;20088;-74
2023/08/16 09:01:49;;;;;;;15.63;4.47;;;19.80;99.90;;;;;;5058655;28;19920;-74
2023/08/16 09:04:15;;;;;;;11.77;3.70;;;19.90;99.90;;;;;;5054349;28;20437;-76
2023/08/16 09:06:44;;;;;;;14.25;3.65;;;19.90;99.90;;;;;;5054058;28;20118;-76
2023/08/16 09:09:12;;;;;;;13.45;4.15;;;19.90;99.90;;;;;;5053507;28;20049;-79
2023/08/16 09:11:38;;;;;;;11.43;4.13;;;20.00;99.90;;;;;;5053574;28;20128;-75
2023/08/16 09:14:04;;;;;;;14.87;4.40;;;19.90;99.90;;;;;;5053463;28;20135;-75
2023/08/16 09:16:30;;;;;;;9.70;4.05;;;20.00;99.90;;;;;;5055355;28;20442;-74
2023/08/16 09:18:56;;;;;;;13.27;3.77;;;20.10;99.90;;;;;;5036905;28;20135;-75
2023/08/16 09:21:24;;;;;;;12.60;4.33;;;20.10;99.90;;;;;;5052994;28;20041;-75
2023/08/16 09:24:00;;;;;;;12.25;4.28;;;20.20;99.90;;;;;;5054400;28;20045;-77
2023/08/16 09:26:29;;;;;;;12.30;4.03;;;20.20;99.90;;;;;;5036472;28;20049;-77
2023/08/16 09:28:59;;;;;;;12.25;4.40;;;20.30;99.90;;;;;;5054287;28;20045;-76
2023/08/16 09:31:29;;;;;;;11.05;3.75;;;20.30;99.90;;;;;;5053996;28;20170;-75
2023/08/16 09:33:55;;;;;;;11.30;4.72;;;20.30;99.90;;;;;;5054366;28;20186;-77
2023/08/16 09:36:21;;;;;;;12.55;4.55;;;20.20;99.90;;;;;;5054029;28;20095;-78
2023/08/16 09:38:48;;;;;;;14.37;4.90;;;20.50;99.90;;;;;;5053292;28;20052;-78
2023/08/16 09:41:16;;;;;;;14.77;4.07;;;20.50;99.90;;;;;;5052736;28;20053;-73
2023/08/16 09:43:42;;;;;;;13.50;4.22;;;20.70;99.90;;;;;;5054799;28;20048;-74
2023/08/16 09:46:09;;;;;;;12.32;4.53;;;20.80;99.90;;;;;;5053155;28;20124;-74
2023/08/16 09:48:35;;;;;;;10.75;5.03;;;21.00;99.90;;;;;;5053785;28;20048;-74
2023/08/16 09:51:03;;;;;;;9.27;4.35;;;21.10;99.90;;;;;;5052914;28;20084;-73
2023/08/16 09:53:32;;;;;;;12.73;4.65;;;21.20;99.90;;;;;;5052172;28;20128;-75
2023/08/16 09:56:02;;;;;;;11.40;4.15;;;21.40;99.90;;;;;;5053157;28;20048;-75
2023/08/16 09:58:28;;;;;;;12.55;4.22;;;21.40;99.90;;;;;;5035794;28;20523;-77
2023/08/16 10:00:58;;;;;;;10.57;3.78;;;21.30;99.90;;;;;;5053474;28;20049;-77
2023/08/16 10:03:24;;;;;;;16.13;4.20;;;21.20;99.90;;;;;;5039575;28;20060;-74
2023/08/16 10:05:52;;;;;;;12.25;3.47;;;21.00;99.90;;;;;;5055664;28;20064;-76
2023/08/16 10:08:19;;;;;;;16.25;3.42;;;21.00;99.90;;;;;;5056679;28;20049;-74
2023/08/16 10:10:46;;;;;;;12.23;3.65;;;20.90;99.90;;;;;;5061100;28;20045;-83
2023/08/16 10:13:12;;;;;;;7.63;3.03;;;20.80;99.90;;;;;;5056243;28;20064;-74
2023/08/16 10:15:41;;;;;;;10.13;3.20;;;20.90;99.90;;;;;;5036876;28;20368;-82
2023/08/16 10:18:11;;;;;;;11.38;3.33;;;20.80;99.90;;;;;;5052495;28;20041;-76
2023/08/16 10:20:41;;;;;;;11.43;3.65;;;20.80;99.90;;;;;;5053891;28;20044;-73
2023/08/16 10:23:12;;;;;;;9.00;3.72;;;20.90;99.90;;;;;;5053497;28;20142;-77
2023/08/16 10:25:47;;;;;;;10.07;3.30;;;20.70;99.90;;;;;;5054323;28;20182;-77
2023/08/16 10:28:15;;;;;;;10.48;3.55;;;20.80;99.90;;;;;;5052614;28;20533;-75
2023/08/16 10:30:44;;;;;;;12.18;3.97;;;20.70;99.90;;;;;;5053350;28;20093;-77
2023/08/16 10:33:23;;;;;;;8.10;3.33;;;20.70;99.90;;;;;;5052153;28;20060;-75
2023/08/16 10:35:50;;;;;;;9.27;3.50;;;20.70;99.90;;;;;;5053357;28;20116;-79
2023/08/16 10:38:16;;;;;;;;;;;20.80;99.90;;;;;;5055163;28;20075;-82
2023/08/16 10:40:42;;;;;;;10.38;4.20;;;20.70;99.90;;;;;;5053277;28;20011;-78
2023/08/16 10:43:08;;;;;;;14.02;3.72;;;20.70;99.90;;;;;;5035771;28;20106;-74
2023/08/16 10:45:35;;;;;;;9.90;4.33;;;20.70;99.90;;;;;;5053188;28;20041;-76
2023/08/16 10:48:10;;;;;;;;;;;20.80;99.90;;;;;;5054095;28;20489;-80
2023/08/16 10:50:36;;;;;;;10.93;4.20;;;20.60;99.90;;;;;;5053905;28;19928;-77
2023/08/16 10:53:04;;;;;;;10.68;4.10;;;20.60;99.90;;;;;;5035647;28;20052;-78
2023/08/16 10:55:30;;;;;;;13.00;4.38;;;20.60;99.90;;;;;;5052839;28;20053;-75
2023/08/16 10:57:56;;;;;;;12.77;4.40;;;20.60;99.90;;;;;;5051846;28;20053;-78
2023/08/16 11:00:32;;;;;;;13.90;5.20;;;20.60;99.90;;;;;;5052926;28;20087;-79
2023/08/16 11:03:01;;;;;;;14.25;4.38;;;20.60;99.90;;;;;;5053106;28;20128;-77
2023/08/16 11:05:31;;;;;;;13.18;4.18;;;20.70;99.90;;;;;;5035562;28;20048;-77
2023/08/16 11:08:01;;;;;;;11.73;4.80;;;20.70;99.90;;;;;;5035096;28;20053;-76
2023/08/16 11:10:53;;;;;;;14.70;4.93;;;20.90;99.90;;;;;;5051949;28;20118;-77
2023/08/16 11:13:18;;;;;;;10.93;4.00;;;21.10;99.90;;;;;;5053350;28;20065;-78
2023/08/16 11:15:44;;;;;;;10.27;3.67;;;21.20;99.90;;;;;;5052086;28;20397;-75
2023/08/16 11:18:10;;;;;;;13.83;4.40;;;21.20;99.90;;;;;;5053109;28;20124;-72
2023/08/16 11:20:36;;;;;;;12.20;4.27;;;21.40;99.90;;;;;;5054850;28;20077;-78
2023/08/16 11:23:02;;;;;;;9.27;3.80;;;21.60;99.90;;;;;;5053592;28;20283;-78
2023/08/16 11:25:36;;;;;;;9.15;3.35;;;21.70;99.90;;;;;;5051727;28;20052;-74
2023/08/16 11:28:05;;;;;;;8.50;3.13;;;21.90;99.90;;;;;;5057202;28;20067;-74
2023/08/16 11:30:31;;;;;;;9.05;3.28;;;22.00;99.90;;;;;;5055047;28;20057;-75
2023/08/16 11:32:58;;;;;;;7.00;3.53;;;22.00;99.90;;;;;;5055285;28;20045;-73
2023/08/16 11:35:24;;;;;;;9.27;3.08;;;22.00;99.90;;;;;;5055833;28;20512;-75
2023/08/16 11:37:50;;;;;;;12.67;3.90;;;22.00;99.90;;;;;;5055509;28;20064;-80
2023/08/16 11:40:22;;;;;;;7.23;3.13;;;21.90;99.90;;;;;;5056399;28;20331;-77
2023/08/16 11:42:51;;;;;;;8.55;3.22;;;21.90;99.90;;;;;;5055855;28;20048;-75
2023/08/16 11:45:21;;;;;;;11.63;3.60;;;21.80;99.90;;;;;;5056173;28;20405;-75
2023/08/16 11:47:53;;;;;;;13.73;4.10;;;21.90;99.90;;;;;;5056897;28;20045;-76
2023/08/16 11:50:22;;;;;;;9.80;3.88;;;22.00;99.90;;;;;;5038834;28;20451;-75
2023/08/16 11:53:03;;;;;;;13.60;3.80;;;22.10;99.90;;;;;;5054582;28;20527;-76
2023/08/16 11:55:29;;;;;;;14.57;4.15;;;22.20;99.90;;;;;;5056690;28;20057;-75
2023/08/16 11:58:06;;;;;;;;;;;22.20;99.90;;;;;;5054906;28;20060;-75
2023/08/16 12:00:33;;;;;;;11.30;3.70;;;22.00;99.90;;;;;;5054613;28;20019;-75
2023/08/16 12:03:03;;;;;;;11.15;4.03;;;22.00;99.90;;;;;;5055636;28;20045;-76
2023/08/16 12:05:35;;;;;;;7.05;3.65;;;21.90;99.90;;;;;;5055717;28;20056;-76
2023/08/16 12:08:04;;;;;;;10.90;3.53;;;21.70;99.90;;;;;;5054613;28;20080;-76
2023/08/16 12:10:32;;;;;;;11.98;3.33;;;21.70;99.90;;;;;;5054693;28;20120;-74
2023/08/16 12:12:58;;;;;;;9.40;3.00;;;21.70;99.90;;;;;;5055700;28;20454;-76
2023/08/16 12:15:27;;;;;;;6.28;3.00;;;21.80;99.90;;;;;;5054559;28;20412;-75
2023/08/16 12:17:56;;;;;;;8.68;3.15;;;21.90;99.90;;;;;;5055377;28;20048;-75
2023/08/16 12:20:26;;;;;;;8.15;2.90;;;21.90;99.90;;;;;;5037522;28;20438;-73
2023/08/16 12:22:53;;;;;;;9.60;3.25;;;22.00;99.90;;;;;;5054264;28;20401;-77
2023/08/16 12:25:19;;;;;;;12.00;3.67;;;22.10;99.90;;;;;;5056496;28;20056;-76
2023/08/16 12:27:45;;;;;;;7.30;2.80;;;22.20;99.90;;;;;;5056140;28;20289;-72
2023/08/16 12:30:11;;;;;;;8.93;2.80;;;22.30;99.90;;;;;;5054394;28;20160;-75
2023/08/16 12:32:37;;;;;;;13.55;2.83;;;22.40;99.90;;;;;;5054046;28;20132;-76
2023/08/16 12:35:03;;;;;;;10.63;3.10;;;22.50;99.90;;;;;;5037695;28;20092;-75